Strona główna
METAR-TAF:

METAR-TAF

Lotnisko :

Port lotniczy Brunei

Brunei, Brunei

Szerokość geograficzna: 04-56N, Długość geograficzna: 114-56E, wysokość: 22 m

Aktualna obserwacja pogody

Raport powstał 14 minut temu, godzina 09:00 UTC
Wiatr 7 kt od północny zachód
Temperatura 32°C
Wilgotność 63%
Ciśnienie 1006 hPa
Widzialność: 7000 m
Mało chmury na wysokości 1700 ft
Przerywane chmury na wysokości 30000 ft

METAR: WBSB 190900Z 32007KT 7000 FEW017 BKN300 32/24 Q1006 NOSIG

czas: 17:14 (09:14 UTC)

Prognoza

Raport powstał 4 godziny i 24 minut temu, godzina 04:50 UTC
Prognoza ważna od 19 godzina 06 UTC do 20 godzina 12 UTC
Wiatr 8 kt od zachodnio-północny zachód
Widzialność: 7000 m
Rozproszone chmury na wysokości 1600 ft
Mało chmury na wysokości 1700 ft, Cumulonimbus.
Stopniowe zmiany
od 19 godzina 11 UTC do 19 godzina 13 UTC
Wiatr 2 kt od południowo-południowy zachód
Mało chmury na wysokości 1500 ft

TAF: WBSB 190450Z 1906/2012 30008KT 7000 SCT016 FEW017CB BECMG 1911/1913 20002KT FEW015

Obserwacja i prognoza pogody dla ponad 4000 lotnisk (raport METAR i TAF).

Dostępne stacje oznaczono żółtymi i czerwonymi punktami na mapie.

Najedź kursorem aby zobaczyć nazwę stacji.

Kliknij aby zobaczyć obserwacje i prognozy pogody.

Aby zmienić mapę: kliknij na zielony przycisk z czarnym krzyżykiem, aby powiększyć; na zielony przycisk z myślnikiem, aby pomniejszyć; na zielone strzałki, aby przejść do map sąsiednich.


METAR-TAF: